Time;durP1;ratioP1;P1;durP2;ratioP2;P2;SDS_P1;SDS_P2;PMS_P1;PMS_P2;Temp;Humidity;BMP_temperature;BMP_pressure;BME280_temperature;BME280_humidity;BME280_pressure;Samples;Min_cycle;Max_cycle;Signal;HPM_P1;HPM_P2
2022/03/17 00:01:35;;;;;;;11.18;6.28;;;;;;;;;;5004322;28;20041;-72
2022/03/17 00:04:01;;;;;;;12.30;5.68;;;;;;;;;;5007584;28;20026;-72
2022/03/17 00:06:28;;;;;;;11.43;5.47;;;;;;;;;;5006247;28;20018;-72
2022/03/17 00:08:54;;;;;;;11.68;5.22;;;;;;;;;;5008060;28;20030;-71
2022/03/17 00:11:20;;;;;;;10.02;5.47;;;;;;;;;;5005782;28;20030;-72
2022/03/17 00:13:46;;;;;;;13.63;5.97;;;;;;;;;;5007764;28;20026;-72
2022/03/17 00:16:13;;;;;;;13.30;6.13;;;;;;;;;;5007229;28;20362;-72
2022/03/17 00:18:39;;;;;;;10.43;6.47;;;;;;;;;;5013856;28;20018;-73
2022/03/17 00:21:06;;;;;;;12.63;6.22;;;;;;;;;;5007562;28;20034;-72
2022/03/17 00:23:32;;;;;;;14.23;6.10;;;;;;;;;;5007972;28;20084;-71
2022/03/17 00:25:58;;;;;;;18.80;8.93;;;;;;;;;;5008307;28;20041;-71
2022/03/17 00:28:24;;;;;;;17.70;7.93;;;;;;;;;;5007458;28;20687;-72
2022/03/17 00:30:50;;;;;;;14.80;8.00;;;;;;;;;;5009987;28;20048;-72
2022/03/17 00:33:17;;;;;;;16.73;8.73;;;;;;;;;;5011776;28;20022;-72
2022/03/17 00:35:44;;;;;;;16.83;7.78;;;;;;;;;;4993408;28;20042;-72
2022/03/17 00:38:19;;;;;;;13.27;7.18;;;;;;;;;;5009034;28;20134;-72
2022/03/17 00:40:46;;;;;;;;;;;;;;;;;;5009753;28;20105;-73
2022/03/17 00:43:12;;;;;;;18.08;7.57;;;;;;;;;;5010359;28;19936;-72
2022/03/17 00:45:39;;;;;;;14.18;7.10;;;;;;;;;;5010646;28;20033;-72
2022/03/17 00:48:05;;;;;;;11.18;5.80;;;;;;;;;;5010286;28;20037;-72
2022/03/17 00:50:32;;;;;;;11.70;5.68;;;;;;;;;;5008813;28;20034;-71
2022/03/17 00:52:59;;;;;;;8.48;5.32;;;;;;;;;;5010863;28;20018;-72
2022/03/17 00:55:25;;;;;;;7.25;5.03;;;;;;;;;;4992228;28;20034;-72
2022/03/17 00:57:52;;;;;;;7.90;4.72;;;;;;;;;;5011017;28;20107;-71
2022/03/17 01:00:18;;;;;;;8.82;4.90;;;;;;;;;;5006476;28;20022;-71
2022/03/17 01:02:48;;;;;;;9.18;5.30;;;;;;;;;;4995835;28;20100;-72
2022/03/17 01:05:15;;;;;;;8.77;4.72;;;;;;;;;;5011715;28;20030;-71
2022/03/17 01:07:41;;;;;;;8.60;5.75;;;;;;;;;;5010111;28;20109;-71
2022/03/17 01:10:08;;;;;;;7.57;4.70;;;;;;;;;;4989529;28;20373;-71
2022/03/17 01:12:35;;;;;;;11.65;5.00;;;;;;;;;;5009349;28;20030;-72
2022/03/17 01:15:01;;;;;;;12.45;4.85;;;;;;;;;;5010478;28;20052;-73
2022/03/17 01:17:27;;;;;;;6.97;4.13;;;;;;;;;;5012693;28;20014;-72
2022/03/17 01:19:54;;;;;;;9.52;4.22;;;;;;;;;;5007753;28;20488;-72
2022/03/17 01:22:21;;;;;;;9.10;4.40;;;;;;;;;;5011455;28;20074;-71
2022/03/17 01:24:49;;;;;;;10.60;5.13;;;;;;;;;;5007471;28;20034;-72
2022/03/17 01:27:19;;;;;;;9.43;4.85;;;;;;;;;;5011128;28;20041;-72
2022/03/17 01:29:46;;;;;;;10.77;4.30;;;;;;;;;;5011098;28;20038;-72
2022/03/17 01:32:12;;;;;;;8.65;4.85;;;;;;;;;;5009923;28;20054;-73
2022/03/17 01:34:38;;;;;;;11.38;4.65;;;;;;;;;;5009856;28;20030;-72
2022/03/17 01:37:04;;;;;;;13.30;5.13;;;;;;;;;;5010531;28;20022;-72
2022/03/17 01:39:30;;;;;;;10.02;6.00;;;;;;;;;;5009120;28;20046;-73
2022/03/17 01:41:57;;;;;;;5.43;3.97;;;;;;;;;;5008342;28;20026;-72
2022/03/17 01:44:23;;;;;;;8.48;4.53;;;;;;;;;;5006551;28;20022;-72
2022/03/17 01:49:37;;;;;;;7.03;4.35;;;;;;;;;;5011279;28;20045;-72
2022/03/17 01:52:04;;;;;;;9.10;4.05;;;;;;;;;;5006505;28;20417;-72
2022/03/17 01:54:30;;;;;;;7.63;4.18;;;;;;;;;;5011745;28;20038;-72
2022/03/17 01:56:58;;;;;;;8.70;4.50;;;;;;;;;;5009732;28;20480;-71
2022/03/17 01:59:25;;;;;;;8.65;4.68;;;;;;;;;;5011088;28;20029;-72
2022/03/17 02:01:52;;;;;;;16.58;5.00;;;;;;;;;;5007481;28;20030;-72
2022/03/17 02:04:18;;;;;;;7.50;4.68;;;;;;;;;;5008795;28;20479;-72
2022/03/17 02:06:45;;;;;;;7.22;3.80;;;;;;;;;;5007704;28;20042;-71
2022/03/17 02:09:11;;;;;;;5.43;3.58;;;;;;;;;;5008722;28;20150;-72
2022/03/17 02:14:23;;;;;;;7.88;4.45;;;;;;;;;;5009951;28;20084;-71
2022/03/17 02:16:50;;;;;;;6.93;4.07;;;;;;;;;;5009795;28;20032;-72
2022/03/17 02:19:16;;;;;;;7.93;4.38;;;;;;;;;;5012341;28;20069;-72
2022/03/17 02:21:44;;;;;;;8.93;4.30;;;;;;;;;;5009652;28;20550;-72
2022/03/17 02:26:57;;;;;;;9.95;5.45;;;;;;;;;;5008014;28;20045;-71
2022/03/17 02:29:23;;;;;;;8.32;3.65;;;;;;;;;;5007260;28;20523;-72
2022/03/17 02:31:50;;;;;;;7.70;3.67;;;;;;;;;;5008435;28;20034;-71
2022/03/17 02:34:19;;;;;;;8.45;3.30;;;;;;;;;;5008065;28;20017;-71
2022/03/17 02:36:48;;;;;;;6.18;3.40;;;;;;;;;;5006226;28;20065;-72
2022/03/17 02:39:18;;;;;;;7.75;4.00;;;;;;;;;;5009487;28;20046;-72
2022/03/17 02:41:44;;;;;;;11.38;4.20;;;;;;;;;;5007652;28;20037;-72
2022/03/17 02:44:11;;;;;;;7.32;3.92;;;;;;;;;;4991552;28;20022;-72
2022/03/17 02:46:37;;;;;;;5.07;3.40;;;;;;;;;;5006780;28;20087;-72
2022/03/17 02:49:03;;;;;;;9.90;3.42;;;;;;;;;;5008567;28;20038;-72
2022/03/17 02:51:30;;;;;;;6.22;3.45;;;;;;;;;;5008001;28;20301;-71
2022/03/17 02:53:56;;;;;;;5.85;3.28;;;;;;;;;;5006195;28;20030;-71
2022/03/17 02:56:22;;;;;;;7.95;3.55;;;;;;;;;;5008061;28;20029;-72
2022/03/17 02:58:48;;;;;;;10.45;4.35;;;;;;;;;;5005929;28;20510;-72
2022/03/17 03:01:14;;;;;;;11.45;4.47;;;;;;;;;;5005825;28;20490;-72
2022/03/17 03:03:40;;;;;;;7.80;3.47;;;;;;;;;;5004652;28;20129;-72
2022/03/17 03:06:06;;;;;;;7.18;3.78;;;;;;;;;;5004045;28;20034;-71
2022/03/17 03:08:33;;;;;;;4.97;3.00;;;;;;;;;;5007965;28;20510;-73
2022/03/17 03:10:59;;;;;;;6.35;3.13;;;;;;;;;;5005471;28;20031;-72
2022/03/17 03:13:25;;;;;;;8.65;3.58;;;;;;;;;;4986579;28;20503;-72
2022/03/17 03:15:51;;;;;;;6.95;3.97;;;;;;;;;;5006518;28;20026;-71
2022/03/17 03:18:18;;;;;;;8.07;3.47;;;;;;;;;;5004688;28;20053;-71
2022/03/17 03:20:44;;;;;;;4.50;3.10;;;;;;;;;;5005867;28;20034;-72
2022/03/17 03:23:10;;;;;;;7.60;3.33;;;;;;;;;;5010353;28;20026;-73
2022/03/17 03:25:36;;;;;;;7.53;3.30;;;;;;;;;;5010278;28;20058;-71
2022/03/17 03:28:06;;;;;;;7.22;4.05;;;;;;;;;;5007576;28;20092;-71
2022/03/17 03:30:32;;;;;;;10.02;3.15;;;;;;;;;;5005223;28;20474;-71
2022/03/17 03:32:58;;;;;;;5.97;3.65;;;;;;;;;;4991113;28;20396;-71
2022/03/17 03:38:09;;;;;;;10.32;3.30;;;;;;;;;;5007529;28;20095;-71
2022/03/17 03:40:36;;;;;;;5.15;2.78;;;;;;;;;;5008521;28;20025;-72
2022/03/17 03:43:02;;;;;;;5.47;3.13;;;;;;;;;;5004770;28;20057;-72
2022/03/17 03:45:28;;;;;;;5.20;2.80;;;;;;;;;;5004431;28;20633;-72
2022/03/17 03:47:54;;;;;;;6.30;3.33;;;;;;;;;;5008186;28;20026;-72
2022/03/17 03:50:20;;;;;;;4.00;2.42;;;;;;;;;;5006867;28;20109;-72
2022/03/17 03:52:46;;;;;;;9.32;3.42;;;;;;;;;;5006900;28;20311;-72
2022/03/17 03:55:12;;;;;;;5.45;2.72;;;;;;;;;;5001922;28;20456;-71
2022/03/17 03:57:39;;;;;;;5.55;2.95;;;;;;;;;;5005235;28;20384;-72
2022/03/17 04:00:51;;;;;;;4.00;2.40;;;;;;;;;;5008473;28;20026;-72
2022/03/17 04:02:52;;;;;;;4.50;2.83;;;;;;;;;;4992686;28;20088;-72
2022/03/17 04:05:20;;;;;;;4.95;2.40;;;;;;;;;;5008058;28;20057;-71
2022/03/17 04:07:46;;;;;;;4.07;2.55;;;;;;;;;;5007361;28;20025;-71
2022/03/17 04:10:12;;;;;;;5.45;2.58;;;;;;;;;;5006671;28;20030;-72
2022/03/17 04:12:38;;;;;;;5.25;2.50;;;;;;;;;;5005894;28;20030;-72
2022/03/17 04:15:04;;;;;;;5.20;2.42;;;;;;;;;;5004647;28;20024;-72
2022/03/17 04:17:30;;;;;;;3.53;2.20;;;;;;;;;;5007958;28;20030;-72
2022/03/17 04:19:56;;;;;;;4.43;2.40;;;;;;;;;;5005224;28;20551;-72
2022/03/17 04:22:23;;;;;;;3.40;2.33;;;;;;;;;;5008147;28;20476;-72
2022/03/17 04:24:49;;;;;;;4.22;2.08;;;;;;;;;;5004503;28;20044;-71
2022/03/17 04:27:15;;;;;;;3.80;2.20;;;;;;;;;;5002653;28;20625;-71
2022/03/17 04:29:41;;;;;;;3.40;2.20;;;;;;;;;;5006196;28;20542;-73
2022/03/17 04:32:09;;;;;;;3.47;2.30;;;;;;;;;;5005270;28;20060;-72
2022/03/17 04:34:35;;;;;;;2.75;2.10;;;;;;;;;;5006405;28;20057;-71
2022/03/17 04:37:01;;;;;;;4.07;2.22;;;;;;;;;;5007510;28;20018;-72
2022/03/17 04:39:27;;;;;;;4.45;2.08;;;;;;;;;;5003494;28;20034;-72
2022/03/17 04:41:53;;;;;;;3.13;1.90;;;;;;;;;;5006889;28;20491;-72
2022/03/17 04:44:19;;;;;;;4.03;1.77;;;;;;;;;;5007017;28;20034;-72
2022/03/17 04:46:46;;;;;;;4.88;1.98;;;;;;;;;;5007643;28;20062;-72
2022/03/17 04:49:12;;;;;;;4.53;2.20;;;;;;;;;;5004662;28;20495;-72
2022/03/17 04:51:38;;;;;;;3.97;2.35;;;;;;;;;;5007170;28;20396;-72
2022/03/17 04:54:06;;;;;;;3.85;1.80;;;;;;;;;;5006103;28;20236;-72
2022/03/17 04:56:32;;;;;;;3.17;1.85;;;;;;;;;;5006819;28;20022;-71
2022/03/17 04:58:58;;;;;;;4.22;2.30;;;;;;;;;;5006825;28;20026;-71
2022/03/17 05:01:24;;;;;;;3.63;1.90;;;;;;;;;;5007732;28;20034;-72
2022/03/17 05:03:51;;;;;;;5.53;2.70;;;;;;;;;;5004847;28;20026;-72
2022/03/17 05:06:17;;;;;;;3.58;1.88;;;;;;;;;;5006593;28;20034;-72
2022/03/17 05:08:43;;;;;;;2.95;1.90;;;;;;;;;;5005977;28;20033;-72
2022/03/17 05:11:10;;;;;;;4.72;2.90;;;;;;;;;;5007336;28;20495;-72
2022/03/17 05:13:37;;;;;;;3.10;1.70;;;;;;;;;;5006586;28;20392;-72
2022/03/17 05:16:04;;;;;;;2.08;1.58;;;;;;;;;;5010814;28;20029;-72
2022/03/17 05:18:31;;;;;;;3.70;1.60;;;;;;;;;;5010526;28;20029;-72
2022/03/17 05:20:57;;;;;;;5.10;1.80;;;;;;;;;;4991719;28;20045;-73
2022/03/17 05:23:23;;;;;;;4.03;1.85;;;;;;;;;;5007420;28;20664;-72
2022/03/17 05:25:52;;;;;;;4.88;1.70;;;;;;;;;;5010993;28;20033;-72
2022/03/17 05:28:18;;;;;;;1.67;1.58;;;;;;;;;;5011298;28;20491;-72
2022/03/17 05:30:45;;;;;;;7.40;1.98;;;;;;;;;;5009649;28;20022;-71
2022/03/17 05:33:11;;;;;;;1.52;1.42;;;;;;;;;;5010795;28;20029;-72
2022/03/17 05:35:38;;;;;;;2.85;1.80;;;;;;;;;;4993639;28;20099;-70
2022/03/17 05:38:04;;;;;;;4.40;1.85;;;;;;;;;;4994337;28;20365;-71
2022/03/17 05:40:30;;;;;;;3.42;1.65;;;;;;;;;;5008021;28;20388;-71
2022/03/17 05:42:59;;;;;;;1.67;1.40;;;;;;;;;;5009544;28;20115;-72
2022/03/17 05:45:26;;;;;;;4.35;1.70;;;;;;;;;;5007949;28;20069;-72
2022/03/17 05:47:53;;;;;;;5.10;1.70;;;;;;;;;;5011751;28;20119;-72
2022/03/17 05:50:20;;;;;;;2.03;1.70;;;;;;;;;;5007763;28;20400;-71
2022/03/17 05:52:47;;;;;;;2.88;1.92;;;;;;;;;;5007535;28;20041;-71
2022/03/17 05:55:15;;;;;;;2.63;1.45;;;;;;;;;;5009381;28;20109;-71
2022/03/17 05:57:42;;;;;;;2.47;1.40;;;;;;;;;;5008174;28;20164;-72
2022/03/17 06:00:11;;;;;;;2.20;1.70;;;;;;;;;;5010288;28;20045;-72
2022/03/17 06:02:38;;;;;;;2.17;1.40;;;;;;;;;;5009289;28;20096;-72
2022/03/17 06:05:05;;;;;;;2.10;1.60;;;;;;;;;;5004845;28;20045;-72
2022/03/17 06:07:37;;;;;;;2.05;1.63;;;;;;;;;;5010006;28;20380;-72
2022/03/17 06:10:07;;;;;;;2.42;1.70;;;;;;;;;;5009687;28;20034;-73
2022/03/17 06:12:33;;;;;;;1.70;1.60;;;;;;;;;;5009933;28;20033;-72
2022/03/17 06:15:00;;;;;;;2.95;1.90;;;;;;;;;;5010229;28;20032;-72
2022/03/17 06:17:38;;;;;;;2.08;1.60;;;;;;;;;;5012693;28;20152;-72
2022/03/17 06:20:05;;;;;;;2.60;1.67;;;;;;;;;;5009749;28;20029;-72
2022/03/17 06:22:31;;;;;;;1.25;1.15;;;;;;;;;;5009229;28;20126;-72
2022/03/17 06:24:57;;;;;;;2.40;1.50;;;;;;;;;;5009738;28;20479;-71
2022/03/17 06:27:24;;;;;;;1.88;1.40;;;;;;;;;;4991481;28;20045;-71
2022/03/17 06:29:50;;;;;;;2.80;1.70;;;;;;;;;;5009851;28;20077;-71
2022/03/17 06:32:16;;;;;;;1.70;1.60;;;;;;;;;;5007185;28;20033;-72
2022/03/17 06:34:43;;;;;;;2.42;1.38;;;;;;;;;;5010257;28;20030;-72
2022/03/17 06:37:09;;;;;;;1.65;1.45;;;;;;;;;;5008279;28;20229;-72
2022/03/17 06:39:35;;;;;;;2.83;1.73;;;;;;;;;;4990589;28;20066;-71
2022/03/17 06:42:01;;;;;;;2.28;1.70;;;;;;;;;;5006124;28;20034;-73
2022/03/17 06:44:27;;;;;;;3.35;2.15;;;;;;;;;;4991965;28;20026;-71
2022/03/17 06:46:53;;;;;;;3.47;1.67;;;;;;;;;;5006719;28;20079;-72
2022/03/17 06:49:19;;;;;;;2.58;1.73;;;;;;;;;;5010380;28;20121;-72
2022/03/17 06:51:45;;;;;;;3.13;1.65;;;;;;;;;;5007211;28;20049;-72
2022/03/17 06:54:12;;;;;;;1.70;1.60;;;;;;;;;;5006251;28;20022;-72
2022/03/17 06:56:38;;;;;;;1.70;1.60;;;;;;;;;;5008141;28;20381;-71
2022/03/17 06:59:04;;;;;;;3.78;1.80;;;;;;;;;;5007347;28;20049;-71
2022/03/17 07:01:30;;;;;;;1.67;1.58;;;;;;;;;;5009125;28;20026;-72
2022/03/17 07:03:56;;;;;;;1.52;1.42;;;;;;;;;;5006905;28;20038;-71
2022/03/17 07:06:22;;;;;;;2.33;1.70;;;;;;;;;;5007444;28;20030;-71
2022/03/17 07:08:48;;;;;;;5.40;2.10;;;;;;;;;;5007181;28;20025;-72
2022/03/17 07:11:14;;;;;;;4.60;2.22;;;;;;;;;;5007400;28;20034;-71
2022/03/17 07:13:40;;;;;;;3.70;1.73;;;;;;;;;;5007878;28;20018;-72
2022/03/17 07:16:06;;;;;;;7.47;1.85;;;;;;;;;;5006371;28;20018;-71
2022/03/17 07:18:32;;;;;;;3.05;2.00;;;;;;;;;;5010095;28;20026;-72
2022/03/17 07:20:59;;;;;;;3.97;1.75;;;;;;;;;;5004293;28;20038;-72
2022/03/17 07:23:25;;;;;;;4.38;1.65;;;;;;;;;;5006189;28;20077;-72
2022/03/17 07:25:52;;;;;;;5.10;2.05;;;;;;;;;;5003532;28;20092;-72
2022/03/17 07:28:20;;;;;;;5.38;3.05;;;;;;;;;;5006768;28;20018;-71
2022/03/17 07:30:47;;;;;;;9.73;1.90;;;;;;;;;;5001968;28;20038;-71
2022/03/17 07:33:13;;;;;;;2.95;1.50;;;;;;;;;;5009654;28;20057;-72
2022/03/17 07:35:39;;;;;;;5.65;2.33;;;;;;;;;;5006243;28;20037;-72
2022/03/17 07:38:06;;;;;;;4.15;1.65;;;;;;;;;;5006243;28;20457;-71
2022/03/17 07:40:33;;;;;;;2.65;1.65;;;;;;;;;;5007257;28;20033;-71
2022/03/17 07:43:02;;;;;;;4.15;1.75;;;;;;;;;;5005920;28;20038;-71
2022/03/17 07:45:28;;;;;;;2.35;1.88;;;;;;;;;;5007171;28;20036;-71
2022/03/17 07:47:55;;;;;;;3.25;2.00;;;;;;;;;;5006893;28;20496;-71
2022/03/17 07:50:21;;;;;;;2.10;1.33;;;;;;;;;;5005207;28;20048;-72
2022/03/17 07:52:47;;;;;;;2.78;1.63;;;;;;;;;;5006097;28;20026;-72
2022/03/17 07:55:14;;;;;;;3.72;1.83;;;;;;;;;;5006603;28;20033;-72
2022/03/17 07:57:40;;;;;;;3.97;2.17;;;;;;;;;;4988010;28;20076;-72
2022/03/17 08:00:07;;;;;;;2.72;1.88;;;;;;;;;;5005465;28;20140;-72
2022/03/17 08:02:33;;;;;;;5.30;1.95;;;;;;;;;;5007709;28;20032;-72
2022/03/17 08:05:01;;;;;;;4.45;1.63;;;;;;;;;;5006960;28;20034;-72
2022/03/17 08:07:28;;;;;;;5.43;1.92;;;;;;;;;;5004337;28;20539;-71
2022/03/17 08:09:54;;;;;;;7.60;1.70;;;;;;;;;;5007804;28;20033;-72
2022/03/17 08:12:22;;;;;;;2.60;1.60;;;;;;;;;;5007406;28;20025;-71
2022/03/17 08:14:50;;;;;;;4.80;1.75;;;;;;;;;;5005129;28;20036;-71
2022/03/17 08:17:16;;;;;;;1.88;1.60;;;;;;;;;;5007717;28;20033;-72
2022/03/17 08:19:42;;;;;;;5.07;1.98;;;;;;;;;;5006113;28;20029;-71
2022/03/17 08:22:08;;;;;;;5.35;1.70;;;;;;;;;;5008098;28;20092;-72
2022/03/17 08:24:34;;;;;;;5.00;2.20;;;;;;;;;;4989814;28;20026;-71
2022/03/17 08:27:02;;;;;;;5.65;1.95;;;;;;;;;;5007010;28;20056;-71
2022/03/17 08:29:29;;;;;;;4.80;1.80;;;;;;;;;;5001817;28;20052;-71
2022/03/17 08:31:55;;;;;;;4.90;1.80;;;;;;;;;;5007330;28;20085;-71
2022/03/17 08:34:21;;;;;;;5.75;2.15;;;;;;;;;;5007797;28;20024;-71
2022/03/17 08:36:50;;;;;;;4.80;1.73;;;;;;;;;;5005021;28;20556;-71
2022/03/17 08:39:16;;;;;;;5.00;2.20;;;;;;;;;;5008339;28;20034;-72
2022/03/17 08:41:42;;;;;;;4.68;1.70;;;;;;;;;;4993864;28;20114;-72
2022/03/17 08:44:08;;;;;;;2.70;1.40;;;;;;;;;;4996279;28;20018;-72
2022/03/17 08:49:19;;;;;;;5.43;1.60;;;;;;;;;;5008591;28;20040;-72
2022/03/17 08:51:50;;;;;;;7.45;1.85;;;;;;;;;;5008817;28;20061;-71
2022/03/17 08:54:17;;;;;;;5.55;1.85;;;;;;;;;;5010577;28;20053;-71
2022/03/17 08:56:43;;;;;;;3.13;1.67;;;;;;;;;;5009140;28;20029;-72
2022/03/17 08:59:10;;;;;;;10.10;3.08;;;;;;;;;;4994102;28;20025;-72
2022/03/17 09:01:37;;;;;;;3.90;1.80;;;;;;;;;;5009485;28;20036;-73
2022/03/17 09:04:03;;;;;;;4.18;2.15;;;;;;;;;;4991818;28;20032;-72
2022/03/17 09:06:29;;;;;;;6.30;1.88;;;;;;;;;;5007717;28;20416;-72
2022/03/17 09:08:55;;;;;;;6.88;2.75;;;;;;;;;;5009596;28;20029;-74
2022/03/17 09:11:21;;;;;;;2.22;1.80;;;;;;;;;;5005752;28;20028;-72
2022/03/17 09:13:49;;;;;;;6.97;2.22;;;;;;;;;;4995515;28;20029;-73
2022/03/17 09:16:16;;;;;;;7.63;2.47;;;;;;;;;;5007337;28;20558;-72
2022/03/17 09:18:43;;;;;;;4.72;2.42;;;;;;;;;;5011922;28;20030;-72
2022/03/17 09:21:09;;;;;;;5.28;2.10;;;;;;;;;;4993304;28;20454;-72
2022/03/17 09:23:35;;;;;;;5.57;2.20;;;;;;;;;;5011024;28;20049;-74
2022/03/17 09:26:02;;;;;;;7.13;2.22;;;;;;;;;;5009878;28;20952;-72
2022/03/17 09:28:28;;;;;;;6.07;2.22;;;;;;;;;;5008937;28;20029;-72
2022/03/17 09:30:57;;;;;;;3.53;2.38;;;;;;;;;;4990346;28;20538;-72
2022/03/17 09:33:25;;;;;;;4.32;2.40;;;;;;;;;;5004157;28;20471;-71
2022/03/17 09:35:51;;;;;;;6.63;1.98;;;;;;;;;;5008461;28;20026;-72
2022/03/17 09:38:17;;;;;;;5.22;2.40;;;;;;;;;;4991614;28;20531;-72
2022/03/17 09:40:45;;;;;;;3.28;1.90;;;;;;;;;;5009719;28;20064;-72
2022/03/17 09:43:22;;;;;;;10.23;3.38;;;;;;;;;;5003936;28;20040;-75
2022/03/17 09:45:53;;;;;;;7.05;2.13;;;;;;;;;;5000791;28;20029;-74
2022/03/17 09:48:21;;;;;;;6.43;2.65;;;;;;;;;;5005223;28;20029;-73
2022/03/17 09:50:47;;;;;;;5.40;3.03;;;;;;;;;;4986749;28;20026;-73
2022/03/17 09:53:14;;;;;;;10.15;2.78;;;;;;;;;;5005083;28;20041;-73
2022/03/17 09:55:43;;;;;;;9.57;3.40;;;;;;;;;;5003594;28;20542;-73
2022/03/17 09:58:10;;;;;;;8.50;2.40;;;;;;;;;;5003890;28;20028;-72
2022/03/17 10:00:49;;;;;;;10.57;2.83;;;;;;;;;;5002157;28;20018;-73
2022/03/17 10:03:22;;;;;;;6.65;2.60;;;;;;;;;;5003474;28;20041;-73
2022/03/17 10:05:49;;;;;;;7.28;2.40;;;;;;;;;;5003268;28;20037;-73
2022/03/17 10:08:16;;;;;;;8.55;3.05;;;;;;;;;;5003666;28;20799;-74
2022/03/17 10:10:43;;;;;;;5.50;2.90;;;;;;;;;;5002710;28;20021;-73
2022/03/17 10:13:14;;;;;;;9.20;2.53;;;;;;;;;;5001394;28;20511;-75
2022/03/17 10:15:41;;;;;;;6.50;2.67;;;;;;;;;;4990071;28;20439;-75
2022/03/17 10:18:23;;;;;;;7.60;2.83;;;;;;;;;;5007171;28;20030;-75
2022/03/17 10:21:04;;;;;;;5.85;2.58;;;;;;;;;;5009717;28;20506;-76
2022/03/17 10:23:30;;;;;;;8.88;2.75;;;;;;;;;;5009364;28;20034;-76
2022/03/17 10:25:57;;;;;;;7.95;3.33;;;;;;;;;;5005453;28;20488;-76
2022/03/17 10:28:26;;;;;;;10.63;3.50;;;;;;;;;;5005667;28;20835;-76
2022/03/17 10:31:02;;;;;;;8.05;3.08;;;;;;;;;;5003269;28;20034;-75
2022/03/17 10:33:29;;;;;;;10.63;5.00;;;;;;;;;;4986794;28;20038;-74
2022/03/17 10:35:55;;;;;;;8.35;3.80;;;;;;;;;;5005979;28;20582;-75
2022/03/17 10:38:27;;;;;;;8.05;3.15;;;;;;;;;;4987346;28;20402;-74
2022/03/17 10:41:02;;;;;;;12.07;3.65;;;;;;;;;;5003807;28;20040;-74
2022/03/17 10:43:29;;;;;;;10.95;4.18;;;;;;;;;;5004685;28;20108;-75
2022/03/17 10:46:11;;;;;;;12.57;4.90;;;;;;;;;;5005184;28;20534;-75
2022/03/17 10:48:53;;;;;;;10.27;4.47;;;;;;;;;;5004059;28;20065;-74
2022/03/17 10:51:30;;;;;;;8.68;3.33;;;;;;;;;;5002434;28;20109;-74
2022/03/17 10:54:06;;;;;;;13.98;3.22;;;;;;;;;;5006082;28;20101;-75
2022/03/17 10:56:34;;;;;;;14.98;3.22;;;;;;;;;;5003760;28;20029;-75
2022/03/17 10:59:00;;;;;;;12.32;3.47;;;;;;;;;;5005295;28;20036;-73
2022/03/17 11:01:37;;;;;;;6.97;3.65;;;;;;;;;;5002962;28;20061;-74
2022/03/17 11:04:04;;;;;;;10.93;3.42;;;;;;;;;;5001626;28;20034;-75
2022/03/17 11:06:30;;;;;;;12.27;3.53;;;;;;;;;;5002460;28;20037;-74
2022/03/17 11:09:00;;;;;;;8.95;2.78;;;;;;;;;;5004178;28;20396;-74
2022/03/17 11:11:27;;;;;;;8.80;3.50;;;;;;;;;;5003701;28;20440;-74
2022/03/17 11:13:53;;;;;;;12.18;2.95;;;;;;;;;;5004038;28;20030;-74
2022/03/17 11:16:21;;;;;;;9.52;2.88;;;;;;;;;;5002538;28;20026;-73
2022/03/17 11:18:48;;;;;;;9.05;2.97;;;;;;;;;;5004799;28;20026;-74
2022/03/17 11:21:16;;;;;;;10.80;2.88;;;;;;;;;;5003025;28;20026;-73
2022/03/17 11:23:56;;;;;;;4.10;3.00;;;;;;;;;;5005418;28;20014;-75
2022/03/17 11:26:49;;;;;;;9.20;3.85;;;;;;;;;;5004208;28;20570;-74
2022/03/17 11:29:17;;;;;;;12.02;3.70;;;;;;;;;;5004350;28;20034;-76
2022/03/17 11:31:51;;;;;;;7.72;3.03;;;;;;;;;;5004507;28;20160;-74
2022/03/17 11:34:38;;;;;;;10.20;3.00;;;;;;;;;;5003397;28;20028;-75
2022/03/17 11:37:16;;;;;;;8.60;3.40;;;;;;;;;;5003883;28;20025;-74
2022/03/17 11:39:48;;;;;;;11.10;3.03;;;;;;;;;;4999872;28;20038;-74
2022/03/17 11:42:30;;;;;;;10.27;3.17;;;;;;;;;;5003114;28;20037;-74
2022/03/17 11:45:04;;;;;;;9.95;2.92;;;;;;;;;;5002683;28;20510;-74
2022/03/17 11:47:36;;;;;;;8.75;2.47;;;;;;;;;;5002718;28;20119;-73
2022/03/17 11:50:21;;;;;;;9.48;3.20;;;;;;;;;;4998042;28;20037;-74
2022/03/17 11:53:07;;;;;;;11.93;3.33;;;;;;;;;;5000639;28;20073;-73
2022/03/17 11:55:38;;;;;;;11.32;3.65;;;;;;;;;;5000688;28;20042;-73
2022/03/17 11:58:17;;;;;;;12.68;3.30;;;;;;;;;;4999866;28;20026;-74
2022/03/17 12:00:46;;;;;;;7.57;3.22;;;;;;;;;;5002078;28;20037;-77
2022/03/17 12:03:13;;;;;;;6.82;3.17;;;;;;;;;;5002057;28;20540;-77
2022/03/17 12:05:42;;;;;;;10.68;3.10;;;;;;;;;;4982686;28;20692;-76
2022/03/17 12:08:09;;;;;;;8.10;2.67;;;;;;;;;;5003927;28;21237;-77
2022/03/17 12:10:54;;;;;;;6.85;3.17;;;;;;;;;;5001555;28;20049;-74
2022/03/17 12:13:21;;;;;;;7.15;2.70;;;;;;;;;;4985287;28;20583;-76
2022/03/17 12:15:55;;;;;;;9.95;3.20;;;;;;;;;;5001695;28;20068;-76
2022/03/17 12:18:21;;;;;;;7.50;2.72;;;;;;;;;;5001068;28;20018;-75
2022/03/17 12:20:48;;;;;;;9.50;3.38;;;;;;;;;;5002262;28;20117;-76
2022/03/17 12:23:33;;;;;;;10.00;3.05;;;;;;;;;;5004428;28;20507;-76
2022/03/17 12:26:05;;;;;;;9.30;3.30;;;;;;;;;;5002465;28;20113;-75
2022/03/17 12:28:31;;;;;;;11.65;4.53;;;;;;;;;;5000883;28;20342;-75
2022/03/17 12:30:57;;;;;;;14.20;4.82;;;;;;;;;;5002438;28;20033;-76
2022/03/17 12:33:25;;;;;;;13.90;4.45;;;;;;;;;;5004764;28;20034;-75
2022/03/17 12:36:04;;;;;;;10.95;4.25;;;;;;;;;;5002682;28;20033;-76
2022/03/17 12:38:30;;;;;;;10.82;4.30;;;;;;;;;;4998979;28;20053;-73
2022/03/17 12:40:57;;;;;;;9.50;3.13;;;;;;;;;;5000234;28;20088;-72
2022/03/17 12:43:24;;;;;;;9.80;3.35;;;;;;;;;;5001757;28;20029;-74
2022/03/17 12:45:51;;;;;;;12.18;4.35;;;;;;;;;;5003335;28;20022;-75
2022/03/17 12:48:18;;;;;;;10.02;3.60;;;;;;;;;;5002672;28;20114;-74
2022/03/17 12:50:45;;;;;;;10.48;3.30;;;;;;;;;;5004191;28;20064;-75
2022/03/17 12:53:11;;;;;;;11.13;4.15;;;;;;;;;;5002286;28;20066;-75
2022/03/17 12:55:37;;;;;;;17.70;3.88;;;;;;;;;;4986467;28;20033;-74
2022/03/17 12:58:07;;;;;;;9.68;3.28;;;;;;;;;;5007073;28;20086;-75
2022/03/17 13:00:33;;;;;;;11.43;4.55;;;;;;;;;;4985839;28;20421;-75
2022/03/17 13:03:00;;;;;;;15.90;3.83;;;;;;;;;;5005896;28;20080;-75
2022/03/17 13:08:14;;;;;;;10.48;3.40;;;;;;;;;;5003647;28;20056;-75
2022/03/17 13:16:11;;;;;;;10.85;3.08;;;;;;;;;;5000436;28;20127;-74
2022/03/17 13:18:41;;;;;;;11.63;3.60;;;;;;;;;;4999357;28;20027;-74
2022/03/17 13:21:09;;;;;;;10.32;3.30;;;;;;;;;;5000115;28;20538;-74
2022/03/17 13:23:36;;;;;;;11.20;3.20;;;;;;;;;;4997890;28;20033;-73
2022/03/17 13:26:02;;;;;;;11.57;3.63;;;;;;;;;;5002936;28;21545;-74
2022/03/17 13:28:28;;;;;;;10.82;3.45;;;;;;;;;;5000414;28;20037;-74
2022/03/17 13:30:54;;;;;;;11.25;3.30;;;;;;;;;;5003106;28;20053;-74
2022/03/17 13:33:27;;;;;;;11.32;3.90;;;;;;;;;;5001006;28;20177;-75
2022/03/17 13:35:53;;;;;;;9.05;3.55;;;;;;;;;;5003569;28;20034;-73
2022/03/17 13:38:20;;;;;;;7.13;3.17;;;;;;;;;;5006482;28;20053;-74
2022/03/17 13:40:52;;;;;;;8.20;2.90;;;;;;;;;;5008640;28;20048;-74
2022/03/17 13:43:30;;;;;;;9.15;3.22;;;;;;;;;;5007914;28;20140;-74
2022/03/17 13:45:56;;;;;;;7.07;3.58;;;;;;;;;;5006999;28;20463;-75
2022/03/17 13:48:24;;;;;;;8.82;3.67;;;;;;;;;;5008195;28;20030;-73
2022/03/17 13:50:50;;;;;;;9.13;3.67;;;;;;;;;;5005524;28;20427;-76
2022/03/17 13:53:17;;;;;;;5.07;3.08;;;;;;;;;;5002253;28;20620;-75
2022/03/17 13:55:44;;;;;;;8.80;3.13;;;;;;;;;;5005978;28;20189;-74
2022/03/17 13:58:21;;;;;;;10.00;3.15;;;;;;;;;;5005402;28;20579;-74
2022/03/17 14:00:48;;;;;;;10.27;3.85;;;;;;;;;;4987324;28;20041;-76
2022/03/17 14:03:32;;;;;;;6.68;2.90;;;;;;;;;;5006042;28;20581;-74
2022/03/17 14:06:15;;;;;;;6.50;2.88;;;;;;;;;;5003755;28;20101;-77
2022/03/17 14:08:44;;;;;;;8.30;3.33;;;;;;;;;;5008125;28;20049;-75
2022/03/17 14:11:11;;;;;;;6.85;2.63;;;;;;;;;;5008808;28;20068;-76
2022/03/17 14:13:39;;;;;;;8.98;3.42;;;;;;;;;;5007296;28;20030;-75
2022/03/17 14:16:09;;;;;;;9.13;3.45;;;;;;;;;;5002347;28;20026;-76
2022/03/17 14:18:35;;;;;;;5.68;2.75;;;;;;;;;;5004115;28;20038;-76
2022/03/17 14:21:02;;;;;;;6.65;2.67;;;;;;;;;;5005945;28;20030;-75
2022/03/17 14:26:15;;;;;;;10.45;3.13;;;;;;;;;;5004688;28;20447;-75
2022/03/17 14:28:41;;;;;;;8.02;2.60;;;;;;;;;;5004951;28;20105;-75
2022/03/17 14:31:09;;;;;;;9.30;3.17;;;;;;;;;;5004814;28;20088;-74
2022/03/17 14:33:37;;;;;;;6.80;2.80;;;;;;;;;;4997168;28;20116;-74
2022/03/17 14:36:07;;;;;;;11.70;3.30;;;;;;;;;;5004490;28;20029;-75
2022/03/17 14:38:34;;;;;;;7.35;2.92;;;;;;;;;;5003030;28;20771;-75
2022/03/17 14:41:00;;;;;;;8.32;2.88;;;;;;;;;;5003415;28;20107;-75
2022/03/17 14:43:27;;;;;;;4.30;2.25;;;;;;;;;;5002993;28;20029;-75
2022/03/17 14:45:53;;;;;;;9.50;3.05;;;;;;;;;;5001844;28;20072;-74
2022/03/17 14:48:19;;;;;;;7.43;2.50;;;;;;;;;;4981242;28;20408;-75
2022/03/17 14:50:45;;;;;;;8.90;3.13;;;;;;;;;;5000958;28;20257;-75
2022/03/17 14:53:11;;;;;;;8.60;2.67;;;;;;;;;;5002899;28;20030;-75
2022/03/17 14:55:37;;;;;;;9.65;3.65;;;;;;;;;;5005241;28;20046;-75
2022/03/17 14:58:03;;;;;;;6.45;2.72;;;;;;;;;;5005531;28;20057;-75
2022/03/17 15:00:29;;;;;;;8.05;3.70;;;;;;;;;;5003469;28;20041;-75
2022/03/17 15:02:56;;;;;;;9.40;3.08;;;;;;;;;;5002987;28;20449;-76
2022/03/17 15:05:22;;;;;;;11.88;4.03;;;;;;;;;;5005841;28;20045;-75
2022/03/17 15:07:48;;;;;;;13.52;3.30;;;;;;;;;;4999101;28;20037;-75
2022/03/17 15:10:15;;;;;;;10.38;3.67;;;;;;;;;;5005114;28;20404;-75